• Join FlightAware (Why Join?)
  • Login
  • US Flag 
09:46AM EDT


 

Airport Tracker/Info


-or-


 

Live Flight TrackerFlight Track Log ✈ SKW6330 ✈ 07-May-2013 ✈ KLAX - KFAT

Flight Track Log - Related Links

Times and Time Zones

All times are in EDT time to prevent confusion due to time zone crossing. See the SKW6330 flight status page for this flight to view local times or setup timezone preferences in your user account.

Time Position Orientation Groundspeed Altitude Reporting Facility
EDT Latitude Longitude Course Direction KTS MPH feet Rate Location/Type
07:44PM 33.9500 -118.4500 335° Northwest 150 173 1,600  Level Southern California TRACON
07:46PM 33.9578 -118.5250 277° West 174 200 3,500 1,620 Climbing Los Angeles Center
07:47PM 34.1354 -118.5014 331° Northwest  Level FlightAware Approximate
07:47PM 33.9872 -118.5831 301° West 187 215 5,300  Level Los Angeles Center
07:48PM 34.2044 -118.5439 338° Northwest  Level FlightAware Approximate
07:48PM 34.0214 -118.6317 310° West 201 231 6,600  Level Los Angeles Center
07:49PM 34.2741 -118.5787 338° Northwest  Level FlightAware Approximate
07:49PM 34.0814 -118.6281 North 219 252 7,000  Level Los Angeles Center
07:50PM 34.3343 -118.6098 335° Northwest  Level FlightAware Approximate
07:50PM 34.1478 -118.6264 North 226 260 7,100  Level Los Angeles Center
07:51PM 34.2083 -118.6208 North 221 254 8,700 1,320 Climbing Los Angeles Center
07:52PM 34.2756 -118.6122 North 205 236 10,200 1,260 Climbing Los Angeles Center
07:53PM 34.3344 -118.6228 352° North 217 250 11,400 1,260 Climbing Los Angeles Center
07:54PM 34.3881 -118.6525 335° Northwest 213 245 12,900 1,200 Climbing Los Angeles Center
07:55PM 34.4536 -118.6883 336° Northwest 216 249 14,000 480 Climbing Los Angeles Center
07:56PM 34.5167 -118.7169 340° North 242 278 14,000  Level Los Angeles Center
07:57PM 34.5800 -118.7469 339° North 247 284 14,000 480 Level Los Angeles Center
07:58PM 34.6286 -118.7706 338° Northwest 238 274 15,100 960 Climbing Los Angeles Center
07:59PM 34.6925 -118.8067 335° Northwest 210 242 16,000 420 Climbing Los Angeles Center
08:00PM 34.7558 -118.8375 338° Northwest 243 280 16,000 240 Level Los Angeles Center
08:01PM 34.8322 -118.8667 343° North 241 277 16,500 780 Climbing Los Angeles Center
08:02PM 34.8908 -118.8728 355° North 216 249 17,700 960 Climbing Los Angeles Center
08:03PM 34.9447 -118.8794 354° North 208 239 18,500 780 Climbing Los Angeles Center
08:04PM 35.0028 -118.8875 354° North 211 243 19,400 960 Climbing Los Angeles Center
08:05PM 35.0750 -118.8972 354° North 215 247 20,600 960 Climbing Los Angeles Center
08:06PM 35.1317 -118.9056 353° North 210 242 21,400 660 Climbing Los Angeles Center
08:07PM 35.1906 -118.9153 352° North 213 245 22,000 240 Climbing Los Angeles Center
08:08PM 35.2558 -118.9244 353° North 232 267 22,000  Level Los Angeles Center
08:09PM 35.3203 -118.9339 353° North 234 269 22,000  Level Los Angeles Center
08:11PM 35.3956 -118.9456 353° North 229 264 22,000  Level Los Angeles Center
08:12PM 35.4594 -118.9556 353° North 230 265 22,000 -60 Level Los Angeles Center
08:13PM 35.5236 -118.9639 354° North 232 267 21,900  Descending Los Angeles Center
08:14PM 35.5886 -118.9739 353° North 234 269 22,000  Climbing Los Angeles Center
08:15PM 35.6508 -118.9833 353° North 228 262 22,000  Level Los Angeles Center
08:16PM 35.7133 -118.9928 353° North 228 262 22,000 -60 Level Los Angeles Center
08:17PM 35.7908 -119.0050 353° North 233 268 21,900 -660 Descending Los Angeles Center
08:18PM 35.8575 -119.0117 355° North 239 275 20,700 -1,260 Descending Los Angeles Center
08:19PM 35.9375 -119.0281 351° North 242 278 19,200 -1,320 Descending Oakland Center
08:20PM 35.9981 -119.0578 338° Northwest 237 273 17,900 -1,440 Descending Oakland Center
08:21PM 36.0583 -119.0872 338° Northwest 234 269 16,300 -1,620 Descending Oakland Center
08:22PM 36.1164 -119.1164 338° Northwest 229 264 14,600 -1,200 Descending Oakland Center
08:23PM 36.1747 -119.1447 339° North 228 262 13,900 -960 Descending Oakland Center
08:24PM 36.2300 -119.1708 339° North 220 253 12,700 -1,260 Descending Oakland Center
08:25PM 36.2839 -119.1942 341° North 213 245 11,400 -1,380 Descending Oakland Center
08:26PM 36.3500 -119.2267 338° Northwest 214 246 9,900 -1,380 Descending Oakland Center
08:27PM 36.4028 -119.2514 339° North 204 235 8,600 -1,320 Descending Oakland Center
08:28PM 36.4558 -119.2789 337° Northwest 205 236 7,200 -1,440 Descending Oakland Center
08:29PM 36.5092 -119.3044 339° North 206 237 5,700 -1,500 Descending Oakland Center
08:30PM 36.5581 -119.3383 331° Northwest 202 232 4,200 -840 Descending Oakland Center
08:31PM 36.5858 -119.3981 300° West 199 229 4,000 -120 Descending Oakland Center
08:32PM 36.6139 -119.4606 299° West 205 236 4,000 -120 Level Oakland Center
08:33PM 36.6489 -119.5175 307° West 208 239 3,800 -540 Descending Oakland Center
08:34PM 36.6867 -119.5669 314° West 199 229 3,000 -840 Descending Oakland Center